Time;durP1;ratioP1;P1;durP2;ratioP2;P2;SDS_P1;SDS_P2;PMS_P1;PMS_P2;Temp;Humidity;BMP_temperature;BMP_pressure;BME280_temperature;BME280_humidity;BME280_pressure;Samples;Min_cycle;Max_cycle;Signal;HPM_P1;HPM_P2
2021/01/17 00:01:42;;;;;;;82.07;39.30;;;1.50;99.90;;;;;;4946620;29;20197;-81
2021/01/17 00:04:09;;;;;;;82.73;40.47;;;1.50;99.90;;;;;;4946723;28;20269;-82
2021/01/17 00:06:35;;;;;;;90.10;40.53;;;1.50;99.90;;;;;;4948349;29;20236;-81
2021/01/17 00:09:04;;;;;;;77.80;38.07;;;1.50;99.90;;;;;;4948476;29;20252;-81
2021/01/17 00:11:30;;;;;;;76.90;39.60;;;1.60;99.90;;;;;;4950760;28;20296;-81
2021/01/17 00:13:57;;;;;;;79.87;40.17;;;1.60;99.90;;;;;;4958696;28;20212;-82
2021/01/17 00:16:24;;;;;;;88.13;40.20;;;1.60;99.90;;;;;;4967085;28;20212;-80
2021/01/17 00:18:50;;;;;;;84.90;40.97;;;1.60;99.90;;;;;;4966550;28;20208;-81
2021/01/17 00:21:16;;;;;;;86.37;39.47;;;1.60;99.90;;;;;;4967206;28;20205;-82
2021/01/17 00:23:43;;;;;;;82.07;41.47;;;1.60;99.90;;;;;;4967043;28;20209;-80
2021/01/17 00:26:09;;;;;;;87.27;39.87;;;1.50;99.90;;;;;;4966053;28;20248;-81
2021/01/17 00:28:35;;;;;;;97.13;40.23;;;1.60;99.90;;;;;;4966141;28;20207;-81
2021/01/17 00:31:02;;;;;;;80.77;40.77;;;1.60;99.90;;;;;;4966358;28;20775;-81
2021/01/17 00:33:29;;;;;;;80.57;38.00;;;1.60;99.90;;;;;;4965571;28;20211;-81
2021/01/17 00:35:55;;;;;;;86.43;40.43;;;1.60;99.90;;;;;;4966508;28;20576;-80
2021/01/17 00:38:22;;;;;;;74.90;34.30;;;1.60;99.90;;;;;;4965769;28;20264;-81
2021/01/17 00:40:48;;;;;;;79.37;36.10;;;1.60;99.90;;;;;;4965346;28;20208;-81
2021/01/17 00:43:14;;;;;;;73.17;37.43;;;1.70;99.90;;;;;;4966458;28;20204;-81
2021/01/17 00:45:40;;;;;;;72.77;35.33;;;1.70;99.90;;;;;;4963137;28;20293;-81
2021/01/17 00:48:08;;;;;;;73.57;35.67;;;1.60;99.90;;;;;;4960821;28;20599;-81
2021/01/17 00:50:35;;;;;;;76.33;36.87;;;1.60;99.90;;;;;;4960756;28;20204;-80
2021/01/17 00:53:01;;;;;;;72.43;34.47;;;1.70;99.90;;;;;;4962470;28;20208;-80
2021/01/17 00:55:27;;;;;;;66.50;35.57;;;1.70;99.90;;;;;;4967163;28;20798;-81
2021/01/17 00:57:54;;;;;;;66.50;34.87;;;1.70;99.90;;;;;;4968914;28;20196;-80
2021/01/17 01:00:24;;;;;;;71.80;37.47;;;1.70;99.90;;;;;;4968465;28;20197;-80
2021/01/17 01:02:50;;;;;;;68.20;35.63;;;1.70;99.90;;;;;;4968110;28;20208;-79
2021/01/17 01:05:16;;;;;;;73.60;34.97;;;1.70;99.90;;;;;;4967310;28;20703;-80
2021/01/17 01:07:44;;;;;;;69.93;35.60;;;1.80;99.90;;;;;;4963921;28;20223;-80
2021/01/17 01:10:11;;;;;;;70.40;35.33;;;1.80;99.90;;;;;;4965564;28;20209;-79
2021/01/17 01:12:38;;;;;;;66.87;34.73;;;1.70;99.90;;;;;;4964426;28;20208;-79
2021/01/17 01:15:05;;;;;;;74.43;37.90;;;1.70;99.90;;;;;;4944087;29;20213;-78
2021/01/17 01:17:31;;;;;;;71.63;34.30;;;1.70;99.90;;;;;;4963152;28;20300;-79
2021/01/17 01:19:58;;;;;;;68.33;34.67;;;1.70;99.90;;;;;;4966358;28;20302;-78
2021/01/17 01:22:24;;;;;;;69.33;34.47;;;1.70;99.90;;;;;;4966638;28;20205;-78
2021/01/17 01:24:51;;;;;;;65.70;35.30;;;1.80;99.90;;;;;;4967113;28;20240;-78
2021/01/17 01:27:18;;;;;;;70.80;35.43;;;1.80;99.90;;;;;;4967683;28;20201;-77
2021/01/17 01:29:44;;;;;;;71.17;36.50;;;1.80;99.90;;;;;;4965739;28;20212;-79
2021/01/17 01:32:13;;;;;;;75.13;37.20;;;1.80;99.90;;;;;;4967323;28;20215;-78
2021/01/17 01:34:40;;;;;;;68.63;35.20;;;1.80;99.90;;;;;;4966425;28;20211;-79
2021/01/17 01:37:07;;;;;;;72.40;35.37;;;1.80;99.90;;;;;;4965335;28;20197;-78
2021/01/17 01:39:33;;;;;;;71.47;34.60;;;1.80;99.90;;;;;;4965520;28;20213;-79
2021/01/17 01:42:05;;;;;;;61.73;31.50;;;1.80;99.90;;;;;;4965676;28;20213;-79
2021/01/17 01:44:31;;;;;;;61.73;33.80;;;1.80;99.90;;;;;;4966608;28;20197;-78
2021/01/17 01:46:58;;;;;;;56.53;31.80;;;1.80;99.90;;;;;;4966604;28;20212;-79
2021/01/17 01:49:24;;;;;;;59.97;33.63;;;1.80;99.90;;;;;;4965674;28;20212;-79
2021/01/17 01:51:51;;;;;;;62.80;32.27;;;1.80;99.90;;;;;;4966099;28;20295;-79
2021/01/17 01:54:17;;;;;;;55.07;32.50;;;1.80;99.90;;;;;;4966816;28;20597;-79
2021/01/17 01:56:43;;;;;;;57.37;29.70;;;1.80;99.90;;;;;;4965937;28;20215;-79
2021/01/17 01:59:11;;;;;;;56.77;31.87;;;1.90;99.90;;;;;;4966772;28;20208;-78
2021/01/17 02:01:41;;;;;;;62.20;33.20;;;1.90;99.90;;;;;;4984863;28;20199;-78
2021/01/17 02:04:10;;;;;;;58.07;30.93;;;1.90;99.90;;;;;;4983567;28;20212;-79
2021/01/17 02:06:45;;;;;;;57.87;31.50;;;1.90;99.90;;;;;;4985510;28;20735;-79
2021/01/17 02:09:25;;;;;;;59.33;31.03;;;1.90;99.90;;;;;;4985957;28;20207;-79
2021/01/17 02:12:20;;;;;;;57.30;31.83;;;1.90;99.90;;;;;;4984803;28;20244;-79
2021/01/17 02:14:53;;;;;;;55.67;31.80;;;1.90;99.90;;;;;;4993030;28;20913;-79
2021/01/17 02:17:22;;;;;;;57.60;30.33;;;1.90;99.90;;;;;;5003379;28;20261;-79
2021/01/17 02:20:14;;;;;;;59.80;31.43;;;1.90;99.90;;;;;;5003680;28;20211;-79
2021/01/17 02:22:48;;;;;;;61.80;32.23;;;2.00;99.90;;;;;;5005599;28;20203;-78
2021/01/17 02:25:16;;;;;;;60.63;31.97;;;2.00;99.90;;;;;;5005385;28;20238;-78
2021/01/17 02:27:45;;;;;;;63.70;31.37;;;2.00;99.90;;;;;;5005716;28;20693;-79
2021/01/17 02:30:13;;;;;;;52.13;28.20;;;2.00;99.90;;;;;;5005255;28;20623;-78
2021/01/17 02:32:44;;;;;;;63.70;33.27;;;2.00;99.90;;;;;;5004913;28;20214;-78
2021/01/17 02:35:12;;;;;;;55.63;30.10;;;2.00;99.90;;;;;;5005473;28;20203;-80
2021/01/17 02:37:52;;;;;;;56.93;29.77;;;2.00;99.90;;;;;;5004863;28;20584;-78
2021/01/17 02:40:30;;;;;;;55.17;30.60;;;2.00;99.90;;;;;;5005236;28;20214;-78
2021/01/17 02:42:58;;;;;;;54.47;28.50;;;2.10;99.90;;;;;;5006212;28;20207;-78
2021/01/17 02:45:24;;;;;;;54.87;29.77;;;2.10;99.90;;;;;;5005204;28;20238;-78
2021/01/17 02:47:51;;;;;;;54.73;30.73;;;2.10;99.90;;;;;;5004933;28;20515;-78
2021/01/17 02:50:17;;;;;;;52.60;29.03;;;2.10;99.90;;;;;;5005197;28;20622;-78
2021/01/17 02:52:50;;;;;;;54.47;30.97;;;2.20;99.90;;;;;;5004717;28;20599;-80
2021/01/17 02:55:16;;;;;;;51.47;29.10;;;2.20;99.90;;;;;;5005291;28;20250;-79
2021/01/17 02:57:47;;;;;;;58.30;32.67;;;2.20;99.90;;;;;;5005166;28;20631;-78
2021/01/17 03:00:15;;;;;;;55.73;32.10;;;2.20;99.90;;;;;;5004304;28;20265;-77
2021/01/17 03:02:44;;;;;;;63.43;31.57;;;2.30;99.90;;;;;;5004839;28;20230;-79
2021/01/17 03:05:16;;;;;;;59.23;31.83;;;2.30;99.90;;;;;;5004940;28;20227;-78
2021/01/17 03:07:48;;;;;;;64.50;33.20;;;2.30;99.90;;;;;;5004181;28;20603;-76
2021/01/17 03:10:14;;;;;;;57.53;30.53;;;2.30;99.90;;;;;;5005153;28;20211;-78
2021/01/17 03:12:41;;;;;;;53.67;29.70;;;2.30;99.90;;;;;;5003901;28;20222;-79
2021/01/17 03:15:09;;;;;;;62.67;33.50;;;2.30;99.90;;;;;;4984170;28;20291;-79
2021/01/17 03:17:35;;;;;;;59.53;33.53;;;2.30;99.90;;;;;;4984475;28;20207;-78
2021/01/17 03:20:01;;;;;;;53.57;29.67;;;2.30;99.90;;;;;;4984729;28;20208;-78
2021/01/17 03:22:28;;;;;;;55.27;29.80;;;2.40;99.90;;;;;;4984931;28;20204;-78
2021/01/17 03:24:54;;;;;;;59.73;32.70;;;2.40;99.90;;;;;;4984814;28;20259;-78
2021/01/17 03:27:20;;;;;;;56.27;30.03;;;2.40;99.90;;;;;;4984434;28;20665;-78
2021/01/17 03:29:47;;;;;;;57.40;32.37;;;2.40;99.90;;;;;;4984362;28;20262;-78
2021/01/17 03:32:14;;;;;;;54.90;29.13;;;2.40;99.90;;;;;;4984943;28;20494;-78
2021/01/17 03:34:41;;;;;;;55.67;30.27;;;2.40;99.90;;;;;;4984499;28;20207;-78
2021/01/17 03:37:07;;;;;;;54.93;28.03;;;2.40;99.90;;;;;;4984534;28;20270;-79
2021/01/17 03:39:33;;;;;;;52.00;27.93;;;2.40;99.90;;;;;;4984069;28;20220;-77
2021/01/17 03:42:00;;;;;;;59.00;30.40;;;2.40;99.90;;;;;;4984379;28;20231;-78
2021/01/17 03:44:26;;;;;;;52.93;29.37;;;2.50;99.90;;;;;;4984267;28;20204;-78
2021/01/17 03:46:52;;;;;;;57.50;30.60;;;2.50;99.90;;;;;;4983826;28;20232;-77
2021/01/17 03:49:19;;;;;;;55.27;29.50;;;2.50;99.90;;;;;;4983824;28;20204;-77
2021/01/17 03:51:46;;;;;;;52.70;30.17;;;2.50;99.90;;;;;;4983496;28;20254;-77
2021/01/17 03:54:12;;;;;;;50.37;27.97;;;2.60;99.90;;;;;;4983985;28;20207;-77
2021/01/17 03:56:38;;;;;;;47.63;27.97;;;2.60;99.90;;;;;;4982344;28;20262;-78
2021/01/17 03:59:05;;;;;;;53.70;26.03;;;2.60;99.90;;;;;;4982398;28;20199;-77
2021/01/17 04:01:31;;;;;;;39.43;14.13;;;2.70;99.90;;;;;;4982354;28;20649;-78
2021/01/17 04:03:58;;;;;;;29.40;7.70;;;2.80;99.90;;;;;;4982214;28;20894;-78
2021/01/17 04:06:25;;;;;;;29.93;6.53;;;3.30;99.90;;;;;;4982462;28;20274;-79
2021/01/17 04:08:52;;;;;;;35.53;6.23;;;3.80;99.90;;;;;;4982154;28;20215;-78
2021/01/17 04:11:18;;;;;;;28.60;5.50;;;4.20;99.90;;;;;;4981823;28;20192;-77
2021/01/17 04:13:44;;;;;;;40.13;6.73;;;4.50;99.90;;;;;;4990919;28;20204;-78
2021/01/17 04:16:11;;;;;;;37.67;4.53;;;4.60;99.90;;;;;;5001676;28;20199;-78
2021/01/17 04:18:37;;;;;;;36.00;5.70;;;4.80;99.90;;;;;;5001907;28;20207;-79
2021/01/17 04:21:04;;;;;;;36.63;5.63;;;5.00;99.90;;;;;;5003113;28;20203;-76
2021/01/17 04:23:31;;;;;;;33.97;5.47;;;5.10;99.90;;;;;;5002303;28;20203;-77
2021/01/17 04:25:57;;;;;;;42.00;6.20;;;5.10;99.90;;;;;;5002689;28;20235;-77
2021/01/17 04:28:23;;;;;;;31.13;6.83;;;5.20;99.90;;;;;;5002484;28;20242;-77
2021/01/17 04:30:50;;;;;;;41.80;6.73;;;5.30;99.90;;;;;;5001689;28;20204;-76
2021/01/17 04:33:18;;;;;;;31.63;5.33;;;5.30;99.90;;;;;;5003324;28;20270;-77
2021/01/17 04:35:44;;;;;;;42.67;7.13;;;5.40;99.90;;;;;;5002508;28;20203;-78
2021/01/17 04:38:11;;;;;;;33.63;6.47;;;5.40;99.90;;;;;;5002383;28;20670;-77
2021/01/17 04:40:38;;;;;;;28.97;5.47;;;5.40;99.90;;;;;;5002191;28;20579;-78
2021/01/17 04:43:07;;;;;;;46.20;7.27;;;5.40;99.90;;;;;;5003207;28;20230;-78
2021/01/17 04:45:35;;;;;;;47.80;7.90;;;5.50;99.90;;;;;;5002365;28;20288;-78
2021/01/17 04:48:03;;;;;;;46.37;6.20;;;5.50;99.90;;;;;;5003114;28;20203;-79
2021/01/17 04:50:31;;;;;;;48.30;6.67;;;5.60;99.90;;;;;;5002466;28;20211;-78
2021/01/17 04:53:00;;;;;;;32.93;6.10;;;5.60;99.90;;;;;;5002265;28;20672;-77
2021/01/17 04:55:27;;;;;;;61.13;8.00;;;5.70;99.90;;;;;;5002679;28;20210;-77
2021/01/17 04:58:04;;;;;;;31.63;5.43;;;5.70;99.90;;;;;;5003065;28;20249;-77
2021/01/17 05:00:32;;;;;;;27.23;5.27;;;5.70;99.90;;;;;;5002037;28;20207;-77
2021/01/17 05:03:09;;;;;;;44.77;6.33;;;5.70;99.90;;;;;;5002762;28;20214;-77
2021/01/17 05:05:46;;;;;;;35.07;6.60;;;5.80;99.90;;;;;;5002332;28;20222;-79
2021/01/17 05:08:43;;;;;;;42.40;7.27;;;5.90;99.90;;;;;;5003236;28;20202;-78
2021/01/17 05:11:21;;;;;;;46.87;7.63;;;5.90;99.90;;;;;;4995467;28;20783;-78
2021/01/17 05:14:00;;;;;;;44.40;6.87;;;5.90;99.90;;;;;;4993289;28;20196;-79
2021/01/17 05:16:36;;;;;;;32.40;7.30;;;5.90;99.90;;;;;;4983692;28;21001;-78
2021/01/17 05:19:03;;;;;;;31.87;5.90;;;5.90;99.90;;;;;;4984365;28;20207;-78
2021/01/17 05:21:33;;;;;;;36.43;7.50;;;6.00;99.90;;;;;;4983138;28;20214;-78
2021/01/17 05:24:00;;;;;;;38.17;7.00;;;6.00;99.90;;;;;;4983949;28;20196;-78
2021/01/17 05:26:26;;;;;;;40.83;6.77;;;6.00;99.90;;;;;;4983445;28;20903;-79
2021/01/17 05:28:54;;;;;;;31.43;6.43;;;6.00;99.90;;;;;;4982728;28;20204;-78
2021/01/17 05:31:25;;;;;;;42.57;6.60;;;6.10;99.90;;;;;;4976164;28;20193;-78
2021/01/17 05:33:51;;;;;;;37.60;6.60;;;6.10;99.90;;;;;;4983522;28;20498;-79
2021/01/17 05:36:17;;;;;;;39.57;5.97;;;6.10;99.90;;;;;;4983374;28;20204;-77
2021/01/17 05:38:44;;;;;;;32.07;5.93;;;6.10;99.90;;;;;;4984315;28;20593;-77
2021/01/17 05:41:24;;;;;;;39.93;6.20;;;6.10;99.90;;;;;;4986056;28;20196;-78
2021/01/17 05:43:50;;;;;;;28.60;5.63;;;6.10;99.90;;;;;;4987094;28;20231;-79
2021/01/17 05:46:17;;;;;;;39.33;7.23;;;6.10;99.90;;;;;;4986825;28;20231;-77
2021/01/17 05:48:43;;;;;;;47.80;7.73;;;6.20;99.90;;;;;;4985866;28;20199;-78
2021/01/17 05:51:09;;;;;;;36.33;6.57;;;6.20;99.90;;;;;;4987019;28;20207;-78
2021/01/17 05:53:36;;;;;;;49.40;7.37;;;6.30;99.90;;;;;;4986985;28;20208;-78
2021/01/17 05:56:15;;;;;;;35.17;5.10;;;6.30;99.90;;;;;;4986300;28;20208;-78
2021/01/17 05:58:43;;;;;;;23.57;5.60;;;6.20;99.90;;;;;;4986388;28;20228;-78
2021/01/17 06:01:17;;;;;;;31.63;5.63;;;6.30;99.90;;;;;;4986634;28;20818;-78
2021/01/17 06:03:50;;;;;;;43.03;6.30;;;6.30;99.90;;;;;;4985859;28;20216;-79
2021/01/17 06:06:25;;;;;;;34.07;6.20;;;6.30;99.90;;;;;;4986558;28;20576;-79
2021/01/17 06:08:54;;;;;;;33.57;6.00;;;6.30;99.90;;;;;;4985811;28;20235;-77
2021/01/17 06:11:21;;;;;;;37.73;5.40;;;6.30;99.90;;;;;;4986757;28;20228;-78
2021/01/17 06:13:54;;;;;;;28.50;6.47;;;6.30;99.90;;;;;;4995429;28;20314;-78
2021/01/17 06:16:30;;;;;;;30.87;5.30;;;6.30;99.90;;;;;;5004059;28;20203;-79
2021/01/17 06:18:58;;;;;;;30.50;6.17;;;6.40;99.90;;;;;;5005630;28;20993;-80
2021/01/17 06:21:26;;;;;;;28.13;5.50;;;6.40;99.90;;;;;;5006401;28;20596;-79
2021/01/17 06:23:56;;;;;;;27.97;5.53;;;6.50;99.90;;;;;;5005377;28;20211;-78
2021/01/17 06:26:28;;;;;;;42.67;6.90;;;6.50;99.90;;;;;;5005087;28;20338;-77
2021/01/17 06:28:54;;;;;;;30.60;5.60;;;6.50;99.90;;;;;;5004570;28;20207;-78
2021/01/17 06:31:26;;;;;;;37.80;6.87;;;6.50;99.90;;;;;;5004962;28;20203;-78
2021/01/17 06:34:03;;;;;;;33.07;5.60;;;6.50;99.90;;;;;;5004764;28;20207;-79
2021/01/17 06:36:31;;;;;;;34.80;6.63;;;6.50;99.90;;;;;;5004845;28;20580;-79
2021/01/17 06:38:58;;;;;;;31.80;5.40;;;6.50;99.90;;;;;;5004567;28;20786;-78
2021/01/17 06:41:38;;;;;;;35.43;6.07;;;6.50;99.90;;;;;;5005026;28;20203;-77
2021/01/17 06:44:10;;;;;;;31.63;6.00;;;6.50;99.90;;;;;;5004251;28;21023;-79
2021/01/17 06:46:41;;;;;;;28.00;5.43;;;6.40;99.90;;;;;;5004348;28;20665;-79
2021/01/17 06:49:19;;;;;;;26.77;5.70;;;6.40;99.90;;;;;;5005287;28;20207;-79
2021/01/17 06:51:46;;;;;;;31.67;5.47;;;6.40;99.90;;;;;;5002822;28;20214;-78
2021/01/17 06:54:13;;;;;;;31.63;6.07;;;6.50;99.90;;;;;;5004625;28;20638;-79
2021/01/17 06:56:41;;;;;;;32.83;5.23;;;6.50;99.90;;;;;;5004351;28;20195;-78
2021/01/17 06:59:08;;;;;;;38.63;5.90;;;6.50;99.90;;;;;;5003466;28;20199;-78
2021/01/17 07:01:42;;;;;;;23.60;4.63;;;6.50;99.90;;;;;;5005390;28;20655;-80
2021/01/17 07:04:33;;;;;;;25.53;4.40;;;6.40;99.90;;;;;;5006247;28;20284;-81
2021/01/17 07:07:16;;;;;;;30.13;5.13;;;6.30;99.90;;;;;;5004845;28;20227;-80
2021/01/17 07:09:48;;;;;;;31.30;6.30;;;6.30;99.90;;;;;;5004808;28;20230;-79
2021/01/17 07:12:21;;;;;;;27.27;6.77;;;6.30;99.90;;;;;;5005068;28;20360;-79
2021/01/17 07:15:02;;;;;;;27.80;5.20;;;6.40;99.90;;;;;;4986672;28;20239;-80
2021/01/17 07:17:32;;;;;;;23.70;5.17;;;6.30;99.90;;;;;;4987157;28;20207;-79
2021/01/17 07:20:08;;;;;;;31.07;6.17;;;6.30;99.90;;;;;;4987477;28;20248;-82
2021/01/17 07:22:35;;;;;;;32.83;5.60;;;6.30;99.90;;;;;;4987612;28;20196;-81
2021/01/17 07:25:03;;;;;;;28.10;5.73;;;6.30;99.90;;;;;;4944451;28;1190102;-79
2021/01/17 07:28:02;;;;;;;31.87;4.97;;;6.40;99.90;;;;;;4983329;28;20907;-78
2021/01/17 07:30:39;;;;;;;25.67;5.23;;;6.40;99.90;;;;;;4984572;28;20240;-78
2021/01/17 07:33:07;;;;;;;31.17;6.27;;;6.30;99.90;;;;;;4986231;28;20188;-77
2021/01/17 07:35:38;;;;;;;22.37;4.73;;;6.30;99.90;;;;;;4985540;28;20604;-79
2021/01/17 07:53:19;;;;;;;24.10;4.80;;;6.40;99.90;;;;;;4708628;29;20250;-78
2021/01/17 07:55:47;;;;;;;39.03;6.67;;;6.40;99.90;;;;;;4825426;29;20250;-79
2021/01/17 07:58:17;;;;;;;31.67;4.90;;;6.40;99.90;;;;;;4831931;29;20841;-76
2021/01/17 08:00:43;;;;;;;28.60;4.63;;;6.40;99.90;;;;;;4901099;29;20214;-78
2021/01/17 08:03:24;;;;;;;20.40;4.53;;;6.40;99.90;;;;;;4904368;29;20198;-77
2021/01/17 08:05:59;;;;;;;29.93;6.30;;;6.40;99.90;;;;;;4904925;29;20262;-79
2021/01/17 08:08:48;;;;;;;15.43;3.70;;;6.40;99.90;;;;;;4897016;29;20248;-78
2021/01/17 08:11:46;;;;;;;18.87;4.17;;;6.40;99.90;;;;;;4904811;29;20207;-79
2021/01/17 08:14:24;;;;;;;17.07;2.93;;;6.50;99.90;;;;;;4902125;29;20206;-78
2021/01/17 08:17:12;;;;;;;18.33;3.67;;;6.40;99.90;;;;;;4931375;29;20967;-77
2021/01/17 08:19:41;;;;;;;15.90;3.70;;;6.40;99.90;;;;;;4943064;29;20300;-80
2021/01/17 08:22:40;;;;;;;13.07;3.97;;;6.40;99.90;;;;;;4943216;29;20237;-78
2021/01/17 08:25:07;;;;;;;19.20;4.10;;;6.40;99.90;;;;;;4891546;29;20226;-80
2021/01/17 08:27:36;;;;;;;18.57;3.77;;;6.40;99.90;;;;;;4905240;29;20198;-78
2021/01/17 08:30:14;;;;;;;12.83;3.20;;;6.40;99.90;;;;;;4930624;28;20201;-79
2021/01/17 08:32:43;;;;;;;22.63;4.17;;;6.40;99.90;;;;;;4962562;28;20199;-77
2021/01/17 08:35:31;;;;;;;20.43;3.27;;;6.40;99.90;;;;;;4962291;28;20213;-81
2021/01/17 08:38:12;;;;;;;22.87;4.17;;;6.40;99.90;;;;;;4962587;28;20208;-80
2021/01/17 08:40:44;;;;;;;30.23;5.47;;;6.40;99.90;;;;;;4962336;28;20212;-77
2021/01/17 08:43:13;;;;;;;20.27;3.70;;;6.50;99.90;;;;;;4962841;28;20396;-80
2021/01/17 08:45:42;;;;;;;25.37;5.17;;;6.50;99.90;;;;;;4961935;28;20228;-79
2021/01/17 08:48:30;;;;;;;30.43;4.57;;;6.50;99.90;;;;;;4963320;28;20824;-78
2021/01/17 08:51:16;;;;;;;26.43;4.60;;;6.50;99.90;;;;;;4958000;28;20209;-80
2021/01/17 08:53:43;;;;;;;21.43;4.37;;;6.50;99.90;;;;;;4963053;28;20244;-79
2021/01/17 08:56:20;;;;;;;27.63;3.93;;;6.70;99.90;;;;;;4962693;28;20204;-77
2021/01/17 08:58:49;;;;;;;28.80;5.30;;;6.80;99.90;;;;;;4961726;28;20204;-79
2021/01/17 09:01:16;;;;;;;26.47;5.13;;;6.80;99.90;;;;;;4971197;28;20265;-79
2021/01/17 09:04:07;;;;;;;19.63;4.23;;;6.80;99.90;;;;;;5003380;28;20207;-79
2021/01/17 09:06:34;;;;;;;28.27;5.00;;;6.90;99.90;;;;;;4996892;28;20231;-79
2021/01/17 09:09:06;;;;;;;29.00;5.17;;;6.90;99.90;;;;;;5003794;28;20284;-80
2021/01/17 09:11:37;;;;;;;28.37;4.97;;;6.90;99.90;;;;;;5003498;28;20215;-80
2021/01/17 09:14:20;;;;;;;18.67;4.37;;;6.90;99.90;;;;;;5005016;28;20191;-77
2021/01/17 09:16:52;;;;;;;17.27;3.50;;;7.00;99.90;;;;;;5007471;28;20619;-80
2021/01/17 09:19:20;;;;;;;22.93;4.73;;;7.00;99.90;;;;;;5007146;28;20206;-79
2021/01/17 09:21:49;;;;;;;16.83;3.70;;;6.90;99.90;;;;;;5006718;28;20249;-77
2021/01/17 09:24:17;;;;;;;11.80;2.83;;;6.90;99.90;;;;;;5006425;28;20208;-77
2021/01/17 09:26:48;;;;;;;14.90;3.33;;;6.90;99.90;;;;;;5005780;28;20859;-79
2021/01/17 09:29:35;;;;;;;15.13;2.77;;;6.90;99.90;;;;;;5007065;28;20207;-79
2021/01/17 09:32:05;;;;;;;14.10;3.30;;;6.90;99.90;;;;;;4989290;28;20207;-79
2021/01/17 09:34:34;;;;;;;16.40;3.50;;;6.90;99.90;;;;;;5007472;28;20215;-81
2021/01/17 09:37:02;;;;;;;20.40;3.53;;;6.90;99.90;;;;;;5008146;28;20211;-80
2021/01/17 09:39:34;;;;;;;8.43;2.70;;;7.00;99.90;;;;;;5007534;28;20207;-79
2021/01/17 09:42:01;;;;;;;15.30;2.60;;;7.10;99.90;;;;;;5006334;28;20646;-78
2021/01/17 09:44:28;;;;;;;12.97;2.60;;;7.10;99.90;;;;;;5007959;28;20226;-82
2021/01/17 09:46:56;;;;;;;16.23;3.60;;;7.20;99.90;;;;;;5008865;28;20230;-81
2021/01/17 09:49:26;;;;;;;14.57;2.73;;;7.20;99.90;;;;;;5009452;28;20249;-80
2021/01/17 09:51:53;;;;;;;14.43;3.33;;;7.20;99.90;;;;;;5007134;28;20215;-78
2021/01/17 09:54:20;;;;;;;12.20;2.60;;;7.20;99.90;;;;;;5006730;28;20269;-80
2021/01/17 09:56:46;;;;;;;21.80;3.57;;;7.20;99.90;;;;;;5007494;28;20203;-80
2021/01/17 09:59:15;;;;;;;13.47;3.10;;;7.20;99.90;;;;;;5007640;28;20605;-80
2021/01/17 10:01:43;;;;;;;12.00;2.80;;;7.30;99.90;;;;;;5008475;28;20261;-80
2021/01/17 10:04:22;;;;;;;25.80;6.37;;;7.30;99.90;;;;;;5007612;28;20194;-80
2021/01/17 10:06:50;;;;;;;18.37;3.63;;;7.40;99.90;;;;;;5007701;28;20233;-80
2021/01/17 10:09:17;;;;;;;18.40;4.63;;;7.50;99.90;;;;;;5007293;28;20199;-80
2021/01/17 10:11:43;;;;;;;25.07;5.23;;;7.50;99.90;;;;;;5007079;28;20207;-80
2021/01/17 10:14:12;;;;;;;14.27;3.60;;;7.40;99.90;;;;;;4995416;28;20207;-80
2021/01/17 10:16:38;;;;;;;18.33;3.73;;;7.40;99.90;;;;;;4986504;28;20219;-78
2021/01/17 10:19:06;;;;;;;20.93;4.90;;;7.30;99.90;;;;;;4987176;28;20318;-80
2021/01/17 10:21:38;;;;;;;17.83;3.07;;;7.40;99.90;;;;;;4987510;28;20303;-80
2021/01/17 10:24:06;;;;;;;15.00;3.17;;;7.40;99.90;;;;;;4985212;28;20951;-79
2021/01/17 10:26:34;;;;;;;20.67;3.43;;;7.40;99.90;;;;;;4982999;28;20224;-80
2021/01/17 10:29:05;;;;;;;30.03;5.27;;;7.50;99.90;;;;;;4984445;28;20211;-78
2021/01/17 10:31:35;;;;;;;21.30;5.07;;;7.50;99.90;;;;;;4984231;28;20204;-80
2021/01/17 10:34:01;;;;;;;28.90;4.87;;;7.60;99.90;;;;;;4984357;28;20204;-80
2021/01/17 10:36:28;;;;;;;20.20;3.93;;;7.70;99.90;;;;;;4983953;28;20675;-79
2021/01/17 10:38:55;;;;;;;16.30;3.20;;;7.80;99.90;;;;;;4984462;28;20203;-80
2021/01/17 10:41:26;;;;;;;25.10;3.67;;;7.90;99.90;;;;;;4984384;28;20192;-80
2021/01/17 10:44:06;;;;;;;21.60;3.53;;;8.00;99.90;;;;;;4984620;28;20208;-80
2021/01/17 10:46:36;;;;;;;18.73;4.20;;;8.00;99.90;;;;;;4984676;28;20230;-78
2021/01/17 10:49:07;;;;;;;14.93;3.30;;;7.90;99.90;;;;;;4986061;28;20200;-81
2021/01/17 10:51:38;;;;;;;18.33;3.80;;;7.90;99.90;;;;;;4985691;28;20200;-81
2021/01/17 10:54:07;;;;;;;20.73;3.83;;;7.90;99.90;;;;;;4987713;28;20207;-83
2021/01/17 10:56:35;;;;;;;19.10;3.60;;;7.90;99.90;;;;;;4984072;28;20208;-81
2021/01/17 10:59:10;;;;;;;17.77;3.90;;;7.90;99.90;;;;;;4986148;28;20459;-81
2021/01/17 11:01:36;;;;;;;16.60;3.40;;;7.90;99.90;;;;;;4987336;28;20199;-82
2021/01/17 11:04:03;;;;;;;16.50;3.40;;;7.90;99.90;;;;;;4989328;28;20310;-83
2021/01/17 11:06:30;;;;;;;16.40;3.90;;;7.90;99.90;;;;;;4988841;28;20228;-82
2021/01/17 11:08:58;;;;;;;21.50;4.70;;;7.80;99.90;;;;;;4988333;28;20207;-83
2021/01/17 11:11:27;;;;;;;18.33;4.10;;;7.90;99.90;;;;;;4986837;28;20600;-82
2021/01/17 11:13:58;;;;;;;22.27;3.47;;;7.90;99.90;;;;;;4995159;28;20214;-82
2021/01/17 11:16:36;;;;;;;20.00;4.87;;;7.90;99.90;;;;;;5004669;28;20199;-80
2021/01/17 11:19:03;;;;;;;19.03;4.27;;;8.00;99.90;;;;;;5004323;28;20318;-80
2021/01/17 11:21:30;;;;;;;14.90;3.70;;;8.00;99.90;;;;;;5005538;28;20210;-81
2021/01/17 11:23:57;;;;;;;28.10;5.27;;;8.00;99.90;;;;;;5005910;28;20238;-82
2021/01/17 11:26:26;;;;;;;23.07;5.53;;;8.00;99.90;;;;;;5006845;28;20230;-82
2021/01/17 11:28:53;;;;;;;19.50;4.37;;;8.00;99.90;;;;;;5008593;28;20847;-83
2021/01/17 11:31:20;;;;;;;28.80;5.67;;;8.10;99.90;;;;;;5008785;28;20203;-82
2021/01/17 11:33:47;;;;;;;18.43;3.90;;;8.10;99.90;;;;;;5008956;28;20198;-83
2021/01/17 11:36:16;;;;;;;25.47;4.63;;;8.20;99.90;;;;;;5008740;28;20584;-84
2021/01/17 11:38:48;;;;;;;19.03;4.03;;;8.20;99.90;;;;;;5007571;28;20211;-83
2021/01/17 11:41:15;;;;;;;26.33;5.63;;;8.20;99.90;;;;;;5007591;28;21057;-82
2021/01/17 11:43:43;;;;;;;20.63;4.17;;;8.20;99.90;;;;;;5008489;28;20217;-82
2021/01/17 11:46:11;;;;;;;28.73;6.17;;;8.30;99.90;;;;;;5009007;28;20227;-82
2021/01/17 11:48:39;;;;;;;19.33;4.03;;;8.30;99.90;;;;;;5007467;28;20203;-83
2021/01/17 11:51:06;;;;;;;21.23;4.80;;;8.30;99.90;;;;;;5007878;28;20214;-81
2021/01/17 11:53:33;;;;;;;23.73;4.40;;;8.30;99.90;;;;;;5007764;28;20211;-81
2021/01/17 11:56:00;;;;;;;23.13;4.27;;;8.30;99.90;;;;;;5009102;28;20848;-81
2021/01/17 11:58:27;;;;;;;17.47;4.57;;;8.40;99.90;;;;;;5009663;28;20199;-82
2021/01/17 12:00:56;;;;;;;22.30;4.37;;;8.40;99.90;;;;;;5007667;28;20215;-82
2021/01/17 12:03:29;;;;;;;24.70;5.00;;;8.50;99.90;;;;;;5009044;28;20626;-82
2021/01/17 12:06:07;;;;;;;20.17;4.43;;;8.60;99.90;;;;;;5005802;28;20235;-82
2021/01/17 12:08:58;;;;;;;22.83;4.47;;;8.60;99.90;;;;;;5002943;28;20296;-81
2021/01/17 12:11:43;;;;;;;28.13;4.73;;;8.70;99.90;;;;;;5003583;28;20242;-84
2021/01/17 12:14:15;;;;;;;24.20;4.37;;;8.60;99.90;;;;;;5003223;28;20298;-82
2021/01/17 12:16:43;;;;;;;23.60;4.60;;;8.60;99.90;;;;;;5006686;28;20203;-82
2021/01/17 12:19:12;;;;;;;29.83;5.17;;;8.60;99.90;;;;;;5008812;28;20214;-83
2021/01/17 12:21:39;;;;;;;26.50;5.03;;;8.70;99.90;;;;;;5009015;28;20202;-83
2021/01/17 12:24:07;;;;;;;20.37;4.60;;;8.70;99.90;;;;;;5007659;28;20568;-82
2021/01/17 12:26:34;;;;;;;19.53;4.53;;;8.60;99.90;;;;;;5007546;28;20509;-83
2021/01/17 12:29:00;;;;;;;23.13;5.00;;;8.60;99.90;;;;;;5009042;28;20191;-82
2021/01/17 12:31:27;;;;;;;17.13;4.03;;;8.60;99.90;;;;;;5008226;28;20380;-84
2021/01/17 12:33:55;;;;;;;22.50;4.50;;;8.50;99.90;;;;;;5003555;28;20214;-84
2021/01/17 12:36:24;;;;;;;23.57;5.57;;;8.40;99.90;;;;;;5002972;28;20603;-83
2021/01/17 12:38:50;;;;;;;16.53;3.97;;;8.40;99.90;;;;;;5002658;28;20218;-83
2021/01/17 12:41:19;;;;;;;20.43;4.70;;;8.40;99.90;;;;;;5004902;28;20210;-86
2021/01/17 12:43:47;;;;;;;26.50;5.70;;;8.40;99.90;;;;;;5007846;28;20207;-85
2021/01/17 12:46:16;;;;;;;23.70;4.67;;;8.40;99.90;;;;;;5008674;28;20606;-78
2021/01/17 12:48:43;;;;;;;18.07;4.33;;;8.40;99.90;;;;;;5005785;28;20199;-85
2021/01/17 12:51:11;;;;;;;35.90;6.30;;;8.40;99.90;;;;;;5009354;28;20209;-84
2021/01/17 12:53:39;;;;;;;24.87;4.47;;;8.50;99.90;;;;;;5007909;28;20203;-80
2021/01/17 12:56:06;;;;;;;24.93;4.30;;;8.50;99.90;;;;;;5005059;28;20202;-83
2021/01/17 12:58:33;;;;;;;31.50;4.20;;;8.50;99.90;;;;;;5006066;28;20204;-80
2021/01/17 13:00:59;;;;;;;22.73;4.97;;;8.50;99.90;;;;;;5007313;28;20209;-85
2021/01/17 13:03:26;;;;;;;25.80;4.43;;;8.40;99.90;;;;;;5006864;28;20195;-83
2021/01/17 13:05:53;;;;;;;20.10;3.90;;;8.50;99.90;;;;;;5006365;28;20227;-83
2021/01/17 13:08:21;;;;;;;23.47;4.27;;;8.50;99.90;;;;;;5006590;28;20207;-85
2021/01/17 13:10:48;;;;;;;24.93;4.30;;;8.40;99.90;;;;;;5004788;28;20208;-83
2021/01/17 13:13:15;;;;;;;21.87;4.27;;;8.50;99.90;;;;;;5000994;28;20262;-85